logo
Search for airport 
image banner adimage banner adimage banner ad
image banner ad

SCPC - Pucon

Located in Pucon, Chile

ICAO - SCPC, IATA - ZPC

Data provided by Airmate  

General information

Coordinates: S39°17'32" W71°54'58"
Elevation is 879 feet MSL.
Magnetic variation is 6° East
View others Airports in Araucanía

Operational data

Special qualification required
Current time UTC:
Current local time:
Weather at : SCQP - La Araucania ( 75 km )
METAR: SCQP 301900Z VRB02KT CAVOK 12/10 Q1016
TAF: TAF SCQP 301627Z 3018/3118 33004KT 9999 BKN040 TX12/3019Z TN07/3110Z TEMPO 3101/3105 6000 -SHRA BKN020 BKN040 BECMG 3104/3106 BKN020 BECMG 3110/3112 02010KT 7000 -RA BKN020 BKN035
View NOTAMs / SUP AIP / TFR affecting this airport [VIEW]
Communications frequencies: [VIEW]

Runways:

RWY identifierQFULength (ft)Width (ft)SurfaceLDA (ft)
10557798UNK
28557798UNK
09102°5577100ASPH5577
27282°5577100ASPH5577

Airport contact information

Address: Pucon Chile

Other aviation service providers

Aviation club (not for profit)

Club Aéreo Pucón

Club Aéreo Pucón
sermac@smet.net+56452442172

Satellite view of SCPC